sensor_id;sensor_type;location;lat;lon;timestamp;P1;durP1;ratioP1;P2;durP2;ratioP2
60582;SDS011;46415;47.536;19.066;2023-04-25T00:01:42;1.42;;;1.33;;
60582;SDS011;46415;47.536;19.066;2023-04-25T00:04:45;1.67;;;1.58;;
60582;SDS011;46415;47.536;19.066;2023-04-25T00:07:51;1.62;;;1.17;;
60582;SDS011;46415;47.536;19.066;2023-04-25T00:10:54;1.55;;;1.45;;
60582;SDS011;46415;47.536;19.066;2023-04-25T00:13:57;1.67;;;1.55;;
60582;SDS011;46415;47.536;19.066;2023-04-25T00:17:02;1.42;;;1.35;;
60582;SDS011;46415;47.536;19.066;2023-04-25T00:20:05;2.05;;;1.35;;
60582;SDS011;46415;47.536;19.066;2023-04-25T00:23:10;4.37;;;2.00;;
60582;SDS011;46415;47.536;19.066;2023-04-25T00:26:12;2.20;;;2.10;;
60582;SDS011;46415;47.536;19.066;2023-04-25T00:29:15;1.90;;;1.77;;
60582;SDS011;46415;47.536;19.066;2023-04-25T00:32:19;2.72;;;2.08;;
60582;SDS011;46415;47.536;19.066;2023-04-25T00:35:22;1.48;;;1.37;;
60582;SDS011;46415;47.536;19.066;2023-04-25T00:38:25;2.42;;;2.22;;
60582;SDS011;46415;47.536;19.066;2023-04-25T00:41:28;2.40;;;2.20;;
60582;SDS011;46415;47.536;19.066;2023-04-25T00:44:32;2.03;;;1.92;;
60582;SDS011;46415;47.536;19.066;2023-04-25T00:47:37;3.12;;;2.40;;
60582;SDS011;46415;47.536;19.066;2023-04-25T00:50:41;1.77;;;1.48;;
60582;SDS011;46415;47.536;19.066;2023-04-25T00:53:54;3.30;;;2.15;;
60582;SDS011;46415;47.536;19.066;2023-04-25T00:56:57;2.62;;;2.42;;
60582;SDS011;46415;47.536;19.066;2023-04-25T01:00:00;2.33;;;2.12;;
60582;SDS011;46415;47.536;19.066;2023-04-25T01:03:05;2.78;;;2.58;;
60582;SDS011;46415;47.536;19.066;2023-04-25T01:06:08;2.12;;;1.95;;
60582;SDS011;46415;47.536;19.066;2023-04-25T01:09:12;2.60;;;2.40;;
60582;SDS011;46415;47.536;19.066;2023-04-25T01:12:16;2.33;;;2.20;;
60582;SDS011;46415;47.536;19.066;2023-04-25T01:15:19;2.45;;;2.28;;
60582;SDS011;46415;47.536;19.066;2023-04-25T01:18:22;2.10;;;1.98;;
60582;SDS011;46415;47.536;19.066;2023-04-25T01:21:25;2.65;;;2.45;;
60582;SDS011;46415;47.536;19.066;2023-04-25T01:24:31;3.47;;;2.67;;
60582;SDS011;46415;47.536;19.066;2023-04-25T01:27:36;2.50;;;2.30;;
60582;SDS011;46415;47.536;19.066;2023-04-25T01:30:40;3.87;;;3.00;;
60582;SDS011;46415;47.536;19.066;2023-04-25T01:33:44;2.95;;;2.70;;
60582;SDS011;46415;47.536;19.066;2023-04-25T01:36:48;2.83;;;2.58;;
60582;SDS011;46415;47.536;19.066;2023-04-25T01:39:52;3.30;;;3.00;;
60582;SDS011;46415;47.536;19.066;2023-04-25T01:42:57;2.55;;;2.35;;
60582;SDS011;46415;47.536;19.066;2023-04-25T01:46:00;2.80;;;2.55;;
60582;SDS011;46415;47.536;19.066;2023-04-25T01:49:03;3.05;;;2.75;;
60582;SDS011;46415;47.536;19.066;2023-04-25T01:52:07;2.22;;;2.10;;
60582;SDS011;46415;47.536;19.066;2023-04-25T01:55:11;2.50;;;2.22;;
60582;SDS011;46415;47.536;19.066;2023-04-25T01:58:15;2.62;;;2.42;;
60582;SDS011;46415;47.536;19.066;2023-04-25T02:01:19;2.50;;;2.30;;
60582;SDS011;46415;47.536;19.066;2023-04-25T02:04:23;5.03;;;2.45;;
60582;SDS011;46415;47.536;19.066;2023-04-25T02:07:26;3.47;;;3.17;;
60582;SDS011;46415;47.536;19.066;2023-04-25T02:10:29;2.72;;;2.53;;
60582;SDS011;46415;47.536;19.066;2023-04-25T02:13:35;3.40;;;3.08;;
60582;SDS011;46415;47.536;19.066;2023-04-25T02:16:38;2.47;;;2.22;;
60582;SDS011;46415;47.536;19.066;2023-04-25T02:19:42;3.17;;;2.87;;
60582;SDS011;46415;47.536;19.066;2023-04-25T02:22:45;2.72;;;2.53;;
60582;SDS011;46415;47.536;19.066;2023-04-25T02:25:48;3.05;;;2.83;;
60582;SDS011;46415;47.536;19.066;2023-04-25T02:28:52;3.05;;;2.58;;
60582;SDS011;46415;47.536;19.066;2023-04-25T02:31:55;2.35;;;2.15;;
60582;SDS011;46415;47.536;19.066;2023-04-25T02:34:58;2.90;;;2.70;;
60582;SDS011;46415;47.536;19.066;2023-04-25T02:38:06;2.95;;;2.47;;
60582;SDS011;46415;47.536;19.066;2023-04-25T02:41:09;2.92;;;2.37;;
60582;SDS011;46415;47.536;19.066;2023-04-25T02:44:12;3.08;;;2.87;;
60582;SDS011;46415;47.536;19.066;2023-04-25T02:47:14;2.45;;;2.25;;
60582;SDS011;46415;47.536;19.066;2023-04-25T02:50:18;2.58;;;2.37;;
60582;SDS011;46415;47.536;19.066;2023-04-25T02:53:21;3.17;;;2.95;;
60582;SDS011;46415;47.536;19.066;2023-04-25T02:56:25;2.65;;;2.45;;
60582;SDS011;46415;47.536;19.066;2023-04-25T02:59:28;2.30;;;2.20;;
60582;SDS011;46415;47.536;19.066;2023-04-25T03:02:31;3.17;;;2.60;;
60582;SDS011;46415;47.536;19.066;2023-04-25T03:05:34;2.65;;;2.40;;
60582;SDS011;46415;47.536;19.066;2023-04-25T03:08:38;2.83;;;2.60;;
60582;SDS011;46415;47.536;19.066;2023-04-25T03:11:40;2.55;;;2.33;;
60582;SDS011;46415;47.536;19.066;2023-04-25T03:14:43;2.60;;;2.45;;
60582;SDS011;46415;47.536;19.066;2023-04-25T03:17:46;3.30;;;3.00;;
60582;SDS011;46415;47.536;19.066;2023-04-25T03:20:49;3.20;;;2.95;;
60582;SDS011;46415;47.536;19.066;2023-04-25T03:23:52;2.62;;;2.42;;
60582;SDS011;46415;47.536;19.066;2023-04-25T03:26:55;2.92;;;2.40;;
60582;SDS011;46415;47.536;19.066;2023-04-25T03:29:57;3.15;;;2.42;;
60582;SDS011;46415;47.536;19.066;2023-04-25T03:33:01;3.30;;;3.00;;
60582;SDS011;46415;47.536;19.066;2023-04-25T03:36:03;3.87;;;2.95;;
60582;SDS011;46415;47.536;19.066;2023-04-25T03:39:07;2.42;;;2.22;;
60582;SDS011;46415;47.536;19.066;2023-04-25T03:42:10;2.80;;;2.60;;
60582;SDS011;46415;47.536;19.066;2023-04-25T03:45:13;3.70;;;2.80;;
60582;SDS011;46415;47.536;19.066;2023-04-25T03:48:16;3.10;;;2.65;;
60582;SDS011;46415;47.536;19.066;2023-04-25T03:51:19;2.50;;;2.30;;
60582;SDS011;46415;47.536;19.066;2023-04-25T03:54:22;3.37;;;2.70;;
60582;SDS011;46415;47.536;19.066;2023-04-25T03:57:25;2.90;;;2.05;;
60582;SDS011;46415;47.536;19.066;2023-04-25T04:00:30;3.08;;;2.65;;
60582;SDS011;46415;47.536;19.066;2023-04-25T04:03:35;3.95;;;3.15;;
60582;SDS011;46415;47.536;19.066;2023-04-25T04:06:39;2.30;;;2.10;;
60582;SDS011;46415;47.536;19.066;2023-04-25T04:09:43;4.07;;;2.25;;
60582;SDS011;46415;47.536;19.066;2023-04-25T04:12:47;3.97;;;2.87;;
60582;SDS011;46415;47.536;19.066;2023-04-25T04:15:49;2.53;;;2.30;;
60582;SDS011;46415;47.536;19.066;2023-04-25T04:18:52;2.37;;;2.17;;
60582;SDS011;46415;47.536;19.066;2023-04-25T04:21:56;2.80;;;2.60;;
60582;SDS011;46415;47.536;19.066;2023-04-25T04:24:58;3.00;;;2.58;;
60582;SDS011;46415;47.536;19.066;2023-04-25T04:28:05;2.47;;;2.28;;
60582;SDS011;46415;47.536;19.066;2023-04-25T04:31:10;2.37;;;2.17;;
60582;SDS011;46415;47.536;19.066;2023-04-25T04:34:13;2.80;;;2.53;;
60582;SDS011;46415;47.536;19.066;2023-04-25T04:37:19;2.75;;;2.35;;
60582;SDS011;46415;47.536;19.066;2023-04-25T04:40:22;2.10;;;2.00;;
60582;SDS011;46415;47.536;19.066;2023-04-25T04:43:25;3.78;;;2.05;;
60582;SDS011;46415;47.536;19.066;2023-04-25T04:46:28;2.53;;;2.33;;
60582;SDS011;46415;47.536;19.066;2023-04-25T04:49:31;2.70;;;2.05;;
60582;SDS011;46415;47.536;19.066;2023-04-25T04:52:34;2.22;;;2.03;;
60582;SDS011;46415;47.536;19.066;2023-04-25T04:55:38;1.87;;;1.77;;
60582;SDS011;46415;47.536;19.066;2023-04-25T04:58:41;2.35;;;2.12;;
60582;SDS011;46415;47.536;19.066;2023-04-25T05:01:44;2.45;;;2.25;;
60582;SDS011;46415;47.536;19.066;2023-04-25T05:04:48;2.15;;;1.92;;
60582;SDS011;46415;47.536;19.066;2023-04-25T05:07:53;2.53;;;2.33;;
60582;SDS011;46415;47.536;19.066;2023-04-25T05:10:56;2.22;;;2.03;;
60582;SDS011;46415;47.536;19.066;2023-04-25T05:14:00;2.00;;;1.77;;
60582;SDS011;46415;47.536;19.066;2023-04-25T05:17:05;2.70;;;2.20;;
60582;SDS011;46415;47.536;19.066;2023-04-25T05:20:10;1.98;;;1.77;;
60582;SDS011;46415;47.536;19.066;2023-04-25T05:23:14;3.20;;;2.42;;
60582;SDS011;46415;47.536;19.066;2023-04-25T05:26:18;3.50;;;2.10;;
60582;SDS011;46415;47.536;19.066;2023-04-25T05:29:25;2.87;;;2.45;;
60582;SDS011;46415;47.536;19.066;2023-04-25T05:32:27;2.55;;;2.30;;
60582;SDS011;46415;47.536;19.066;2023-04-25T05:35:31;2.25;;;2.10;;
60582;SDS011;46415;47.536;19.066;2023-04-25T05:38:34;2.25;;;2.05;;
60582;SDS011;46415;47.536;19.066;2023-04-25T05:41:38;2.60;;;2.40;;
60582;SDS011;46415;47.536;19.066;2023-04-25T05:44:41;4.40;;;2.47;;
60582;SDS011;46415;47.536;19.066;2023-04-25T05:47:45;2.78;;;2.10;;
60582;SDS011;46415;47.536;19.066;2023-04-25T05:50:49;3.12;;;2.83;;
60582;SDS011;46415;47.536;19.066;2023-04-25T05:53:54;2.67;;;2.22;;
60582;SDS011;46415;47.536;19.066;2023-04-25T05:56:56;2.65;;;2.28;;
60582;SDS011;46415;47.536;19.066;2023-04-25T06:00:00;2.60;;;2.40;;
60582;SDS011;46415;47.536;19.066;2023-04-25T06:03:14;4.37;;;2.42;;
60582;SDS011;46415;47.536;19.066;2023-04-25T06:06:22;3.65;;;2.40;;
60582;SDS011;46415;47.536;19.066;2023-04-25T06:09:25;4.25;;;2.92;;
60582;SDS011;46415;47.536;19.066;2023-04-25T06:12:28;3.55;;;2.90;;
60582;SDS011;46415;47.536;19.066;2023-04-25T06:15:31;3.60;;;2.78;;
60582;SDS011;46415;47.536;19.066;2023-04-25T06:18:35;2.67;;;2.40;;
60582;SDS011;46415;47.536;19.066;2023-04-25T06:21:38;4.72;;;2.75;;
60582;SDS011;46415;47.536;19.066;2023-04-25T06:24:40;3.15;;;2.85;;
60582;SDS011;46415;47.536;19.066;2023-04-25T06:27:43;2.85;;;2.60;;
60582;SDS011;46415;47.536;19.066;2023-04-25T06:30:48;3.05;;;2.85;;
60582;SDS011;46415;47.536;19.066;2023-04-25T06:33:51;2.85;;;2.65;;
60582;SDS011;46415;47.536;19.066;2023-04-25T06:36:58;4.15;;;3.25;;
60582;SDS011;46415;47.536;19.066;2023-04-25T06:40:01;3.58;;;3.25;;
60582;SDS011;46415;47.536;19.066;2023-04-25T06:43:05;7.10;;;3.55;;
60582;SDS011;46415;47.536;19.066;2023-04-25T06:46:09;3.78;;;3.20;;
60582;SDS011;46415;47.536;19.066;2023-04-25T06:49:13;3.47;;;3.17;;
60582;SDS011;46415;47.536;19.066;2023-04-25T06:52:16;4.10;;;3.40;;
60582;SDS011;46415;47.536;19.066;2023-04-25T06:55:21;3.97;;;3.30;;
60582;SDS011;46415;47.536;19.066;2023-04-25T06:58:25;3.47;;;3.10;;
60582;SDS011;46415;47.536;19.066;2023-04-25T07:01:29;3.95;;;3.35;;
60582;SDS011;46415;47.536;19.066;2023-04-25T07:04:33;4.22;;;3.67;;
60582;SDS011;46415;47.536;19.066;2023-04-25T07:07:36;4.87;;;4.43;;
60582;SDS011;46415;47.536;19.066;2023-04-25T07:10:39;4.03;;;3.62;;
60582;SDS011;46415;47.536;19.066;2023-04-25T07:13:42;4.32;;;3.92;;
60582;SDS011;46415;47.536;19.066;2023-04-25T07:16:45;4.82;;;4.43;;
60582;SDS011;46415;47.536;19.066;2023-04-25T07:19:48;5.18;;;3.47;;
60582;SDS011;46415;47.536;19.066;2023-04-25T07:22:52;5.70;;;4.62;;
60582;SDS011;46415;47.536;19.066;2023-04-25T07:25:55;5.12;;;4.62;;
60582;SDS011;46415;47.536;19.066;2023-04-25T07:28:59;5.28;;;4.78;;
60582;SDS011;46415;47.536;19.066;2023-04-25T07:32:02;4.72;;;4.32;;
60582;SDS011;46415;47.536;19.066;2023-04-25T07:35:07;5.25;;;4.60;;
60582;SDS011;46415;47.536;19.066;2023-04-25T07:38:11;4.75;;;4.32;;
60582;SDS011;46415;47.536;19.066;2023-04-25T07:41:14;4.28;;;3.97;;
60582;SDS011;46415;47.536;19.066;2023-04-25T07:44:17;4.15;;;3.75;;
60582;SDS011;46415;47.536;19.066;2023-04-25T07:47:20;4.47;;;3.75;;
60582;SDS011;46415;47.536;19.066;2023-04-25T07:50:23;4.28;;;3.87;;
60582;SDS011;46415;47.536;19.066;2023-04-25T07:53:27;4.22;;;3.47;;
60582;SDS011;46415;47.536;19.066;2023-04-25T07:56:33;3.62;;;3.33;;
60582;SDS011;46415;47.536;19.066;2023-04-25T07:59:52;3.87;;;3.58;;
60582;SDS011;46415;47.536;19.066;2023-04-25T08:02:55;3.90;;;3.50;;
60582;SDS011;46415;47.536;19.066;2023-04-25T08:05:59;3.60;;;3.30;;
60582;SDS011;46415;47.536;19.066;2023-04-25T08:09:05;4.55;;;3.78;;
60582;SDS011;46415;47.536;19.066;2023-04-25T08:12:08;4.22;;;3.33;;
60582;SDS011;46415;47.536;19.066;2023-04-25T08:15:11;3.83;;;3.53;;
60582;SDS011;46415;47.536;19.066;2023-04-25T08:18:17;3.58;;;3.28;;
60582;SDS011;46415;47.536;19.066;2023-04-25T08:21:20;3.37;;;3.08;;
60582;SDS011;46415;47.536;19.066;2023-04-25T08:24:24;3.53;;;3.22;;
60582;SDS011;46415;47.536;19.066;2023-04-25T08:27:26;2.90;;;2.70;;
60582;SDS011;46415;47.536;19.066;2023-04-25T08:30:31;2.90;;;2.70;;
60582;SDS011;46415;47.536;19.066;2023-04-25T08:33:34;3.10;;;2.90;;
60582;SDS011;46415;47.536;19.066;2023-04-25T08:36:38;3.08;;;2.70;;
60582;SDS011;46415;47.536;19.066;2023-04-25T08:39:48;3.25;;;2.95;;
60582;SDS011;46415;47.536;19.066;2023-04-25T08:42:53;3.15;;;2.87;;
60582;SDS011;46415;47.536;19.066;2023-04-25T08:45:58;2.90;;;2.70;;
60582;SDS011;46415;47.536;19.066;2023-04-25T08:49:04;3.40;;;3.10;;
60582;SDS011;46415;47.536;19.066;2023-04-25T08:52:07;2.90;;;2.60;;
60582;SDS011;46415;47.536;19.066;2023-04-25T08:55:13;3.00;;;2.80;;
60582;SDS011;46415;47.536;19.066;2023-04-25T08:58:17;3.65;;;3.35;;
60582;SDS011;46415;47.536;19.066;2023-04-25T09:01:20;3.55;;;3.22;;
60582;SDS011;46415;47.536;19.066;2023-04-25T09:04:24;3.55;;;3.22;;
60582;SDS011;46415;47.536;19.066;2023-04-25T09:07:29;4.12;;;3.40;;
60582;SDS011;46415;47.536;19.066;2023-04-25T09:10:33;3.50;;;3.20;;
60582;SDS011;46415;47.536;19.066;2023-04-25T09:13:36;3.75;;;3.45;;
60582;SDS011;46415;47.536;19.066;2023-04-25T09:20:08;3.20;;;2.90;;
60582;SDS011;46415;47.536;19.066;2023-04-25T09:23:14;2.78;;;2.58;;
60582;SDS011;46415;47.536;19.066;2023-04-25T09:26:18;2.40;;;2.30;;
60582;SDS011;46415;47.536;19.066;2023-04-25T09:29:28;2.70;;;2.50;;
60582;SDS011;46415;47.536;19.066;2023-04-25T09:32:33;3.90;;;2.55;;
60582;SDS011;46415;47.536;19.066;2023-04-25T09:35:40;2.30;;;2.20;;
60582;SDS011;46415;47.536;19.066;2023-04-25T09:38:46;2.50;;;2.40;;
60582;SDS011;46415;47.536;19.066;2023-04-25T09:41:53;3.10;;;2.40;;
60582;SDS011;46415;47.536;19.066;2023-04-25T09:44:57;2.35;;;2.20;;
60582;SDS011;46415;47.536;19.066;2023-04-25T09:48:03;2.35;;;2.25;;
60582;SDS011;46415;47.536;19.066;2023-04-25T09:51:12;1.98;;;1.85;;
60582;SDS011;46415;47.536;19.066;2023-04-25T09:54:16;2.30;;;2.10;;
60582;SDS011;46415;47.536;19.066;2023-04-25T09:57:20;1.75;;;1.65;;
60582;SDS011;46415;47.536;19.066;2023-04-25T10:00:25;1.52;;;1.48;;
60582;SDS011;46415;47.536;19.066;2023-04-25T10:03:30;1.50;;;1.40;;
60582;SDS011;46415;47.536;19.066;2023-04-25T10:06:37;1.75;;;1.65;;
60582;SDS011;46415;47.536;19.066;2023-04-25T10:09:40;1.48;;;1.37;;
60582;SDS011;46415;47.536;19.066;2023-04-25T10:12:45;1.40;;;1.30;;
60582;SDS011;46415;47.536;19.066;2023-04-25T10:15:48;1.00;;;1.00;;
60582;SDS011;46415;47.536;19.066;2023-04-25T10:18:51;1.55;;;1.30;;
60582;SDS011;46415;47.536;19.066;2023-04-25T10:22:14;0.85;;;0.85;;
60582;SDS011;46415;47.536;19.066;2023-04-25T10:25:23;1.20;;;1.10;;
60582;SDS011;46415;47.536;19.066;2023-04-25T10:28:26;1.45;;;1.00;;
60582;SDS011;46415;47.536;19.066;2023-04-25T10:31:29;1.00;;;0.90;;
60582;SDS011;46415;47.536;19.066;2023-04-25T10:34:40;0.85;;;0.85;;
60582;SDS011;46415;47.536;19.066;2023-04-25T10:38:05;0.80;;;0.80;;
60582;SDS011;46415;47.536;19.066;2023-04-25T10:41:12;1.58;;;0.90;;
60582;SDS011;46415;47.536;19.066;2023-04-25T10:44:16;0.90;;;0.90;;
60582;SDS011;46415;47.536;19.066;2023-04-25T10:47:19;0.80;;;0.80;;
60582;SDS011;46415;47.536;19.066;2023-04-25T10:50:38;0.82;;;0.80;;
60582;SDS011;46415;47.536;19.066;2023-04-25T10:53:44;0.80;;;0.80;;
60582;SDS011;46415;47.536;19.066;2023-04-25T10:56:48;0.60;;;0.60;;
60582;SDS011;46415;47.536;19.066;2023-04-25T10:59:51;1.17;;;0.75;;
60582;SDS011;46415;47.536;19.066;2023-04-25T11:02:58;0.85;;;0.85;;
60582;SDS011;46415;47.536;19.066;2023-04-25T11:06:02;0.70;;;0.70;;
60582;SDS011;46415;47.536;19.066;2023-04-25T11:09:08;0.40;;;0.40;;
60582;SDS011;46415;47.536;19.066;2023-04-25T11:12:16;0.50;;;0.50;;
60582;SDS011;46415;47.536;19.066;2023-04-25T11:15:20;0.43;;;0.43;;
60582;SDS011;46415;47.536;19.066;2023-04-25T11:18:25;1.95;;;0.70;;
60582;SDS011;46415;47.536;19.066;2023-04-25T11:21:30;0.62;;;0.62;;
60582;SDS011;46415;47.536;19.066;2023-04-25T11:24:34;0.40;;;0.40;;
60582;SDS011;46415;47.536;19.066;2023-04-25T11:27:59;0.55;;;0.50;;
60582;SDS011;46415;47.536;19.066;2023-04-25T11:31:04;0.45;;;0.45;;
60582;SDS011;46415;47.536;19.066;2023-04-25T11:34:07;0.50;;;0.50;;
60582;SDS011;46415;47.536;19.066;2023-04-25T11:37:09;0.62;;;0.62;;
60582;SDS011;46415;47.536;19.066;2023-04-25T11:40:15;0.43;;;0.43;;
60582;SDS011;46415;47.536;19.066;2023-04-25T11:43:21;0.52;;;0.50;;
60582;SDS011;46415;47.536;19.066;2023-04-25T11:46:25;0.40;;;0.40;;
60582;SDS011;46415;47.536;19.066;2023-04-25T11:49:30;0.50;;;0.50;;
60582;SDS011;46415;47.536;19.066;2023-04-25T11:52:35;0.35;;;0.35;;
60582;SDS011;46415;47.536;19.066;2023-04-25T11:55:39;0.68;;;0.55;;
60582;SDS011;46415;47.536;19.066;2023-04-25T12:01:58;0.75;;;0.60;;
60582;SDS011;46415;47.536;19.066;2023-04-25T12:05:07;0.47;;;0.47;;
60582;SDS011;46415;47.536;19.066;2023-04-25T12:08:32;0.45;;;0.45;;
60582;SDS011;46415;47.536;19.066;2023-04-25T12:11:44;1.02;;;0.60;;
60582;SDS011;46415;47.536;19.066;2023-04-25T12:14:50;0.75;;;0.75;;
60582;SDS011;46415;47.536;19.066;2023-04-25T12:17:53;1.00;;;1.00;;
60582;SDS011;46415;47.536;19.066;2023-04-25T12:20:59;0.98;;;0.70;;
60582;SDS011;46415;47.536;19.066;2023-04-25T12:27:16;1.67;;;0.88;;
60582;SDS011;46415;47.536;19.066;2023-04-25T12:30:21;0.60;;;0.60;;
60582;SDS011;46415;47.536;19.066;2023-04-25T12:33:27;0.80;;;0.80;;
60582;SDS011;46415;47.536;19.066;2023-04-25T12:36:31;0.95;;;0.95;;
60582;SDS011;46415;47.536;19.066;2023-04-25T12:39:34;0.73;;;0.70;;
60582;SDS011;46415;47.536;19.066;2023-04-25T12:42:37;0.80;;;0.80;;
60582;SDS011;46415;47.536;19.066;2023-04-25T12:45:40;0.88;;;0.88;;
60582;SDS011;46415;47.536;19.066;2023-04-25T12:48:43;0.93;;;0.80;;
60582;SDS011;46415;47.536;19.066;2023-04-25T12:51:46;0.90;;;0.90;;
60582;SDS011;46415;47.536;19.066;2023-04-25T12:54:49;1.02;;;1.02;;
60582;SDS011;46415;47.536;19.066;2023-04-25T12:57:52;1.35;;;1.10;;
60582;SDS011;46415;47.536;19.066;2023-04-25T13:00:55;2.50;;;0.88;;
60582;SDS011;46415;47.536;19.066;2023-04-25T13:03:57;1.42;;;1.10;;
60582;SDS011;46415;47.536;19.066;2023-04-25T13:07:00;2.05;;;0.90;;
60582;SDS011;46415;47.536;19.066;2023-04-25T13:10:03;1.10;;;0.90;;
60582;SDS011;46415;47.536;19.066;2023-04-25T13:13:07;1.95;;;1.02;;
60582;SDS011;46415;47.536;19.066;2023-04-25T13:16:10;1.00;;;0.90;;
60582;SDS011;46415;47.536;19.066;2023-04-25T13:19:16;1.00;;;0.93;;
60582;SDS011;46415;47.536;19.066;2023-04-25T13:22:20;0.88;;;0.80;;
60582;SDS011;46415;47.536;19.066;2023-04-25T13:25:23;0.90;;;0.90;;
60582;SDS011;46415;47.536;19.066;2023-04-25T13:28:25;1.23;;;1.12;;
60582;SDS011;46415;47.536;19.066;2023-04-25T13:31:29;2.03;;;1.20;;
60582;SDS011;46415;47.536;19.066;2023-04-25T13:34:32;1.00;;;1.00;;
60582;SDS011;46415;47.536;19.066;2023-04-25T13:37:35;0.90;;;0.90;;
60582;SDS011;46415;47.536;19.066;2023-04-25T13:40:38;0.98;;;0.98;;
60582;SDS011;46415;47.536;19.066;2023-04-25T13:43:41;1.15;;;1.05;;
60582;SDS011;46415;47.536;19.066;2023-04-25T13:46:44;1.40;;;0.90;;
60582;SDS011;46415;47.536;19.066;2023-04-25T13:49:49;2.92;;;1.05;;
60582;SDS011;46415;47.536;19.066;2023-04-25T13:52:52;0.80;;;0.80;;
60582;SDS011;46415;47.536;19.066;2023-04-25T13:55:55;0.88;;;0.82;;
60582;SDS011;46415;47.536;19.066;2023-04-25T13:58:57;0.93;;;0.93;;
60582;SDS011;46415;47.536;19.066;2023-04-25T14:02:01;1.35;;;1.00;;
60582;SDS011;46415;47.536;19.066;2023-04-25T14:05:06;1.70;;;1.15;;
60582;SDS011;46415;47.536;19.066;2023-04-25T14:08:10;1.00;;;1.00;;
60582;SDS011;46415;47.536;19.066;2023-04-25T14:11:13;0.73;;;0.73;;
60582;SDS011;46415;47.536;19.066;2023-04-25T14:14:16;1.08;;;1.05;;
60582;SDS011;46415;47.536;19.066;2023-04-25T14:17:19;2.17;;;1.10;;
60582;SDS011;46415;47.536;19.066;2023-04-25T14:20:22;3.12;;;1.30;;
60582;SDS011;46415;47.536;19.066;2023-04-25T14:23:26;3.28;;;1.30;;
60582;SDS011;46415;47.536;19.066;2023-04-25T14:26:32;1.10;;;1.10;;
60582;SDS011;46415;47.536;19.066;2023-04-25T14:29:36;1.45;;;1.35;;
60582;SDS011;46415;47.536;19.066;2023-04-25T14:32:39;1.70;;;1.10;;
60582;SDS011;46415;47.536;19.066;2023-04-25T14:35:42;1.17;;;1.12;;
60582;SDS011;46415;47.536;19.066;2023-04-25T14:38:44;1.17;;;1.08;;
60582;SDS011;46415;47.536;19.066;2023-04-25T14:41:48;1.00;;;1.00;;
60582;SDS011;46415;47.536;19.066;2023-04-25T14:44:51;1.12;;;1.10;;
60582;SDS011;46415;47.536;19.066;2023-04-25T14:47:54;1.40;;;1.10;;
60582;SDS011;46415;47.536;19.066;2023-04-25T14:50:58;1.08;;;1.08;;
60582;SDS011;46415;47.536;19.066;2023-04-25T14:54:02;0.93;;;0.93;;
60582;SDS011;46415;47.536;19.066;2023-04-25T14:57:05;1.20;;;1.10;;
60582;SDS011;46415;47.536;19.066;2023-04-25T15:00:08;0.80;;;0.80;;
60582;SDS011;46415;47.536;19.066;2023-04-25T15:03:12;1.35;;;1.02;;
60582;SDS011;46415;47.536;19.066;2023-04-25T15:06:16;1.55;;;1.20;;
60582;SDS011;46415;47.536;19.066;2023-04-25T15:09:18;1.00;;;1.00;;
60582;SDS011;46415;47.536;19.066;2023-04-25T15:12:21;0.88;;;0.88;;
60582;SDS011;46415;47.536;19.066;2023-04-25T15:15:25;1.10;;;1.10;;
60582;SDS011;46415;47.536;19.066;2023-04-25T15:18:28;1.25;;;0.93;;
60582;SDS011;46415;47.536;19.066;2023-04-25T15:21:31;0.77;;;0.77;;
60582;SDS011;46415;47.536;19.066;2023-04-25T15:24:34;2.45;;;0.80;;
60582;SDS011;46415;47.536;19.066;2023-04-25T15:27:38;1.30;;;0.98;;
60582;SDS011;46415;47.536;19.066;2023-04-25T15:30:46;1.12;;;1.02;;
60582;SDS011;46415;47.536;19.066;2023-04-25T15:33:49;1.05;;;0.77;;
60582;SDS011;46415;47.536;19.066;2023-04-25T15:36:53;1.23;;;1.12;;
60582;SDS011;46415;47.536;19.066;2023-04-25T15:40:00;0.90;;;0.90;;
60582;SDS011;46415;47.536;19.066;2023-04-25T15:43:11;0.85;;;0.85;;
60582;SDS011;46415;47.536;19.066;2023-04-25T15:46:17;1.42;;;1.20;;
60582;SDS011;46415;47.536;19.066;2023-04-25T15:49:22;1.50;;;1.40;;
60582;SDS011;46415;47.536;19.066;2023-04-25T15:52:25;2.25;;;1.17;;
60582;SDS011;46415;47.536;19.066;2023-04-25T15:55:29;1.52;;;1.40;;
60582;SDS011;46415;47.536;19.066;2023-04-25T15:58:31;1.58;;;1.48;;
60582;SDS011;46415;47.536;19.066;2023-04-25T16:01:34;1.80;;;1.70;;
60582;SDS011;46415;47.536;19.066;2023-04-25T16:04:38;2.05;;;1.95;;
60582;SDS011;46415;47.536;19.066;2023-04-25T16:07:41;1.90;;;1.80;;
60582;SDS011;46415;47.536;19.066;2023-04-25T16:10:45;1.80;;;1.70;;
60582;SDS011;46415;47.536;19.066;2023-04-25T16:13:48;1.98;;;1.87;;
60582;SDS011;46415;47.536;19.066;2023-04-25T16:16:51;2.40;;;2.20;;
60582;SDS011;46415;47.536;19.066;2023-04-25T16:19:57;2.33;;;2.15;;
60582;SDS011;46415;47.536;19.066;2023-04-25T16:23:00;2.50;;;2.30;;
60582;SDS011;46415;47.536;19.066;2023-04-25T16:26:03;4.60;;;2.40;;
60582;SDS011;46415;47.536;19.066;2023-04-25T16:29:06;2.30;;;2.10;;
60582;SDS011;46415;47.536;19.066;2023-04-25T16:32:09;2.33;;;2.12;;
60582;SDS011;46415;47.536;19.066;2023-04-25T16:35:12;2.87;;;2.58;;
60582;SDS011;46415;47.536;19.066;2023-04-25T16:38:15;2.47;;;2.28;;
60582;SDS011;46415;47.536;19.066;2023-04-25T16:41:18;2.53;;;2.10;;
60582;SDS011;46415;47.536;19.066;2023-04-25T16:44:21;2.80;;;2.47;;
60582;SDS011;46415;47.536;19.066;2023-04-25T16:47:24;3.87;;;2.70;;
60582;SDS011;46415;47.536;19.066;2023-04-25T16:50:28;2.65;;;2.45;;
60582;SDS011;46415;47.536;19.066;2023-04-25T16:53:31;2.60;;;2.40;;
60582;SDS011;46415;47.536;19.066;2023-04-25T16:56:33;5.32;;;2.60;;
60582;SDS011;46415;47.536;19.066;2023-04-25T16:59:37;2.92;;;2.72;;
60582;SDS011;46415;47.536;19.066;2023-04-25T17:02:40;2.72;;;2.53;;
60582;SDS011;46415;47.536;19.066;2023-04-25T17:05:43;2.70;;;2.50;;
60582;SDS011;46415;47.536;19.066;2023-04-25T17:08:46;2.37;;;2.17;;
60582;SDS011;46415;47.536;19.066;2023-04-25T17:11:49;3.12;;;2.90;;
60582;SDS011;46415;47.536;19.066;2023-04-25T17:14:52;2.97;;;2.67;;
60582;SDS011;46415;47.536;19.066;2023-04-25T17:17:55;2.78;;;2.55;;
60582;SDS011;46415;47.536;19.066;2023-04-25T17:20:58;2.83;;;2.62;;
60582;SDS011;46415;47.536;19.066;2023-04-25T17:24:01;4.30;;;3.03;;
60582;SDS011;46415;47.536;19.066;2023-04-25T17:27:07;3.47;;;3.00;;
60582;SDS011;46415;47.536;19.066;2023-04-25T17:30:10;3.92;;;2.90;;
60582;SDS011;46415;47.536;19.066;2023-04-25T17:33:14;4.10;;;2.90;;
60582;SDS011;46415;47.536;19.066;2023-04-25T17:36:17;3.30;;;3.00;;
60582;SDS011;46415;47.536;19.066;2023-04-25T17:39:20;4.07;;;3.10;;
60582;SDS011;46415;47.536;19.066;2023-04-25T17:42:23;3.00;;;2.70;;
60582;SDS011;46415;47.536;19.066;2023-04-25T17:45:26;3.40;;;2.67;;
60582;SDS011;46415;47.536;19.066;2023-04-25T17:48:30;3.12;;;2.70;;
60582;SDS011;46415;47.536;19.066;2023-04-25T17:51:33;3.08;;;2.78;;
60582;SDS011;46415;47.536;19.066;2023-04-25T17:54:35;3.83;;;2.97;;
60582;SDS011;46415;47.536;19.066;2023-04-25T17:57:38;4.43;;;3.15;;
60582;SDS011;46415;47.536;19.066;2023-04-25T18:00:41;3.58;;;2.17;;
60582;SDS011;46415;47.536;19.066;2023-04-25T18:03:44;3.62;;;2.95;;
60582;SDS011;46415;47.536;19.066;2023-04-25T18:06:50;3.12;;;2.42;;
60582;SDS011;46415;47.536;19.066;2023-04-25T18:09:53;3.17;;;2.87;;
60582;SDS011;46415;47.536;19.066;2023-04-25T18:12:55;3.37;;;2.40;;
60582;SDS011;46415;47.536;19.066;2023-04-25T18:15:58;3.70;;;2.92;;
60582;SDS011;46415;47.536;19.066;2023-04-25T18:19:01;2.92;;;2.72;;
60582;SDS011;46415;47.536;19.066;2023-04-25T18:22:07;3.95;;;3.37;;